LGAL/AXD METAR and TAF weather

Enter ICAO airport designator
Station Type Date Time Source
LGAL METAR 2020/09/18 07:20 UTC NOAA

LGAL 180720Z 05016KT 9999 FEW025 25/19 Q1014


Station Type Date Time Source
LGAL Decoded METAR 2020/09/18 07:20 UTC NOAA

Alexandroupoli Airport , Greece (LGAL) 40-51N 025-55E 3M
Sep 18, 2020 - 03:20 AM EDT / 2020.09.18 0720 UTC
Wind: from the NE (050 degrees) at 18 MPH (16 KT):0
Visibility: greater than 7 mile(s):0
Sky conditions: mostly clear
Temperature: 77 F (25 C)
Dew Point: 66 F (19 C)
Relative Humidity: 69%
Pressure (altimeter): 29.94 in. Hg (1014 hPa)
ob: LGAL 180720Z 05016KT 9999 FEW025 25/19 Q1014
cycle: 7

Station Type Date Time Source
LGAL TAF 2012/09/21 03:06 UTC NOAA

TAF TAF LGAL 210200Z 2103/2115 03012G22KT 9999 FEW020 SCT070 PROB30
TEMPO 2103/2106 6000 RA SCT015 BKN030 PROB30

Example: see airport list